sensor_id;sensor_type;location;lat;lon;timestamp;temperature;humidity
27128;DHT22;14660;49.008;8.390;2022-10-23T00:01:46;14.30;99.90
27128;DHT22;14660;49.008;8.390;2022-10-23T00:04:22;14.20;99.90
27128;DHT22;14660;49.008;8.390;2022-10-23T00:06:51;14.00;99.90
27128;DHT22;14660;49.008;8.390;2022-10-23T00:09:21;14.00;99.90
27128;DHT22;14660;49.008;8.390;2022-10-23T00:11:50;14.00;99.90
27128;DHT22;14660;49.008;8.390;2022-10-23T00:14:20;13.90;99.90
27128;DHT22;14660;49.008;8.390;2022-10-23T00:16:47;13.80;99.90
27128;DHT22;14660;49.008;8.390;2022-10-23T00:19:14;13.90;99.90
27128;DHT22;14660;49.008;8.390;2022-10-23T00:21:41;14.00;99.90
27128;DHT22;14660;49.008;8.390;2022-10-23T00:24:08;14.00;99.90
27128;DHT22;14660;49.008;8.390;2022-10-23T00:26:35;14.10;99.90
27128;DHT22;14660;49.008;8.390;2022-10-23T00:29:04;14.00;99.90
27128;DHT22;14660;49.008;8.390;2022-10-23T00:31:32;14.20;99.90
27128;DHT22;14660;49.008;8.390;2022-10-23T00:34:01;14.20;99.90
27128;DHT22;14660;49.008;8.390;2022-10-23T00:36:29;14.20;99.90
27128;DHT22;14660;49.008;8.390;2022-10-23T00:38:56;14.10;99.90
27128;DHT22;14660;49.008;8.390;2022-10-23T00:41:26;14.20;99.90
27128;DHT22;14660;49.008;8.390;2022-10-23T00:47:00;14.20;99.90
27128;DHT22;14660;49.008;8.390;2022-10-23T00:49:26;14.10;99.90
27128;DHT22;14660;49.008;8.390;2022-10-23T00:51:56;14.10;99.90
27128;DHT22;14660;49.008;8.390;2022-10-23T00:54:28;14.10;99.90
27128;DHT22;14660;49.008;8.390;2022-10-23T00:57:05;14.10;99.90
27128;DHT22;14660;49.008;8.390;2022-10-23T00:59:40;14.10;99.90
27128;DHT22;14660;49.008;8.390;2022-10-23T01:02:14;14.00;99.90
27128;DHT22;14660;49.008;8.390;2022-10-23T01:04:43;14.00;99.90
27128;DHT22;14660;49.008;8.390;2022-10-23T01:10:36;14.00;99.90
27128;DHT22;14660;49.008;8.390;2022-10-23T01:16:39;13.90;99.90
27128;DHT22;14660;49.008;8.390;2022-10-23T01:28:28;14.00;99.90
27128;DHT22;14660;49.008;8.390;2022-10-23T01:30:57;13.90;99.90
27128;DHT22;14660;49.008;8.390;2022-10-23T01:33:31;13.90;99.90
27128;DHT22;14660;49.008;8.390;2022-10-23T01:36:18;14.00;99.90
27128;DHT22;14660;49.008;8.390;2022-10-23T01:38:51;13.90;99.90
27128;DHT22;14660;49.008;8.390;2022-10-23T01:44:27;13.90;99.90
27128;DHT22;14660;49.008;8.390;2022-10-23T01:46:56;13.90;99.90
27128;DHT22;14660;49.008;8.390;2022-10-23T01:49:26;13.90;99.90
27128;DHT22;14660;49.008;8.390;2022-10-23T01:51:57;13.90;99.90
27128;DHT22;14660;49.008;8.390;2022-10-23T01:54:28;13.90;99.90
27128;DHT22;14660;49.008;8.390;2022-10-23T01:56:56;13.80;99.90
27128;DHT22;14660;49.008;8.390;2022-10-23T01:59:34;13.80;99.90
27128;DHT22;14660;49.008;8.390;2022-10-23T02:02:08;13.80;99.90
27128;DHT22;14660;49.008;8.390;2022-10-23T02:04:44;13.80;99.90
27128;DHT22;14660;49.008;8.390;2022-10-23T02:07:11;13.70;99.90
27128;DHT22;14660;49.008;8.390;2022-10-23T02:09:38;13.80;99.90
27128;DHT22;14660;49.008;8.390;2022-10-23T02:15:49;13.70;99.90
27128;DHT22;14660;49.008;8.390;2022-10-23T02:18:43;13.60;99.90
27128;DHT22;14660;49.008;8.390;2022-10-23T02:21:13;13.70;99.90
27128;DHT22;14660;49.008;8.390;2022-10-23T02:24:04;13.70;99.90
27128;DHT22;14660;49.008;8.390;2022-10-23T02:29:12;13.60;99.90
27128;DHT22;14660;49.008;8.390;2022-10-23T02:31:39;13.70;99.90
27128;DHT22;14660;49.008;8.390;2022-10-23T02:34:08;13.60;99.90
27128;DHT22;14660;49.008;8.390;2022-10-23T02:36:34;13.70;99.90
27128;DHT22;14660;49.008;8.390;2022-10-23T02:39:05;13.70;99.90
27128;DHT22;14660;49.008;8.390;2022-10-23T02:45:04;13.70;99.90
27128;DHT22;14660;49.008;8.390;2022-10-23T02:47:59;13.80;99.90
27128;DHT22;14660;49.008;8.390;2022-10-23T02:57:00;13.60;99.90
27128;DHT22;14660;49.008;8.390;2022-10-23T03:00:16;13.70;99.90
27128;DHT22;14660;49.008;8.390;2022-10-23T03:02:30;13.60;99.90
27128;DHT22;14660;49.008;8.390;2022-10-23T03:05:00;13.60;99.90
27128;DHT22;14660;49.008;8.390;2022-10-23T03:07:28;13.70;99.90
27128;DHT22;14660;49.008;8.390;2022-10-23T03:09:56;13.80;99.90
27128;DHT22;14660;49.008;8.390;2022-10-23T03:12:23;13.70;99.90
27128;DHT22;14660;49.008;8.390;2022-10-23T03:14:49;13.70;99.90
27128;DHT22;14660;49.008;8.390;2022-10-23T03:17:16;13.80;99.90
27128;DHT22;14660;49.008;8.390;2022-10-23T03:19:43;13.90;99.90
27128;DHT22;14660;49.008;8.390;2022-10-23T03:22:09;13.70;99.90
27128;DHT22;14660;49.008;8.390;2022-10-23T03:24:36;13.70;99.90
27128;DHT22;14660;49.008;8.390;2022-10-23T03:27:05;13.80;99.90
27128;DHT22;14660;49.008;8.390;2022-10-23T03:29:41;13.90;99.90
27128;DHT22;14660;49.008;8.390;2022-10-23T03:32:09;13.90;99.90
27128;DHT22;14660;49.008;8.390;2022-10-23T03:34:36;14.00;99.90
27128;DHT22;14660;49.008;8.390;2022-10-23T03:37:03;14.00;99.90
27128;DHT22;14660;49.008;8.390;2022-10-23T03:39:31;14.00;99.90
27128;DHT22;14660;49.008;8.390;2022-10-23T03:41:58;13.90;99.90
27128;DHT22;14660;49.008;8.390;2022-10-23T03:44:25;14.10;99.90
27128;DHT22;14660;49.008;8.390;2022-10-23T03:46:52;14.10;99.90
27128;DHT22;14660;49.008;8.390;2022-10-23T03:49:20;14.10;99.90
27128;DHT22;14660;49.008;8.390;2022-10-23T03:51:47;14.00;99.90
27128;DHT22;14660;49.008;8.390;2022-10-23T03:54:22;14.00;99.90
27128;DHT22;14660;49.008;8.390;2022-10-23T03:56:51;14.10;99.90
27128;DHT22;14660;49.008;8.390;2022-10-23T03:59:20;14.10;99.90
27128;DHT22;14660;49.008;8.390;2022-10-23T04:01:47;14.10;99.90
27128;DHT22;14660;49.008;8.390;2022-10-23T04:04:14;14.10;99.90
27128;DHT22;14660;49.008;8.390;2022-10-23T04:06:41;14.10;99.90
27128;DHT22;14660;49.008;8.390;2022-10-23T04:09:10;14.00;99.90
27128;DHT22;14660;49.008;8.390;2022-10-23T04:11:36;14.10;99.90
27128;DHT22;14660;49.008;8.390;2022-10-23T04:14:03;14.00;99.90
27128;DHT22;14660;49.008;8.390;2022-10-23T04:16:30;14.10;99.90
27128;DHT22;14660;49.008;8.390;2022-10-23T04:18:57;14.10;99.90
27128;DHT22;14660;49.008;8.390;2022-10-23T04:21:24;14.10;99.90
27128;DHT22;14660;49.008;8.390;2022-10-23T04:23:51;14.10;99.90
27128;DHT22;14660;49.008;8.390;2022-10-23T04:26:18;14.10;99.90
27128;DHT22;14660;49.008;8.390;2022-10-23T04:28:45;14.10;99.90
27128;DHT22;14660;49.008;8.390;2022-10-23T04:31:12;14.20;99.90
27128;DHT22;14660;49.008;8.390;2022-10-23T04:33:40;14.20;99.90
27128;DHT22;14660;49.008;8.390;2022-10-23T04:36:08;14.10;99.90
27128;DHT22;14660;49.008;8.390;2022-10-23T04:38:44;14.20;99.90
27128;DHT22;14660;49.008;8.390;2022-10-23T04:41:10;14.10;99.90
27128;DHT22;14660;49.008;8.390;2022-10-23T04:43:37;14.10;99.90
27128;DHT22;14660;49.008;8.390;2022-10-23T04:46:04;14.10;99.90
27128;DHT22;14660;49.008;8.390;2022-10-23T04:48:31;14.10;99.90
27128;DHT22;14660;49.008;8.390;2022-10-23T04:51:03;14.10;99.90
27128;DHT22;14660;49.008;8.390;2022-10-23T04:53:30;14.10;99.90
27128;DHT22;14660;49.008;8.390;2022-10-23T04:56:00;14.10;99.90
27128;DHT22;14660;49.008;8.390;2022-10-23T04:58:28;14.10;99.90
27128;DHT22;14660;49.008;8.390;2022-10-23T05:01:02;14.10;99.90
27128;DHT22;14660;49.008;8.390;2022-10-23T05:03:37;14.10;99.90
27128;DHT22;14660;49.008;8.390;2022-10-23T05:06:05;14.10;99.90
27128;DHT22;14660;49.008;8.390;2022-10-23T05:08:36;14.00;99.90
27128;DHT22;14660;49.008;8.390;2022-10-23T05:11:02;14.10;99.90
27128;DHT22;14660;49.008;8.390;2022-10-23T05:13:38;14.20;99.90
27128;DHT22;14660;49.008;8.390;2022-10-23T05:16:07;14.20;99.90
27128;DHT22;14660;49.008;8.390;2022-10-23T05:18:45;14.00;99.90
27128;DHT22;14660;49.008;8.390;2022-10-23T05:21:24;13.90;99.90
27128;DHT22;14660;49.008;8.390;2022-10-23T05:23:53;13.90;99.90
27128;DHT22;14660;49.008;8.390;2022-10-23T05:26:20;13.80;99.90
27128;DHT22;14660;49.008;8.390;2022-10-23T05:28:47;14.00;99.90
27128;DHT22;14660;49.008;8.390;2022-10-23T05:31:15;13.90;99.90
27128;DHT22;14660;49.008;8.390;2022-10-23T05:33:41;13.90;99.90
27128;DHT22;14660;49.008;8.390;2022-10-23T05:36:08;13.80;99.90
27128;DHT22;14660;49.008;8.390;2022-10-23T05:38:38;13.80;99.90
27128;DHT22;14660;49.008;8.390;2022-10-23T05:41:08;13.70;99.90
27128;DHT22;14660;49.008;8.390;2022-10-23T05:43:35;13.70;99.90
27128;DHT22;14660;49.008;8.390;2022-10-23T05:46:10;13.70;99.90
27128;DHT22;14660;49.008;8.390;2022-10-23T05:48:36;13.60;99.90
27128;DHT22;14660;49.008;8.390;2022-10-23T05:51:08;13.80;99.90
27128;DHT22;14660;49.008;8.390;2022-10-23T05:53:38;13.90;99.90
27128;DHT22;14660;49.008;8.390;2022-10-23T05:56:08;13.80;99.90
27128;DHT22;14660;49.008;8.390;2022-10-23T05:58:35;13.80;99.90
27128;DHT22;14660;49.008;8.390;2022-10-23T06:01:11;13.60;99.90
27128;DHT22;14660;49.008;8.390;2022-10-23T06:03:39;13.60;99.90
27128;DHT22;14660;49.008;8.390;2022-10-23T06:06:06;13.60;99.90
27128;DHT22;14660;49.008;8.390;2022-10-23T06:08:34;13.60;99.90
27128;DHT22;14660;49.008;8.390;2022-10-23T06:11:10;13.40;99.90
27128;DHT22;14660;49.008;8.390;2022-10-23T06:13:40;13.60;99.90
27128;DHT22;14660;49.008;8.390;2022-10-23T06:16:25;13.50;99.90
27128;DHT22;14660;49.008;8.390;2022-10-23T06:18:54;13.50;99.90
27128;DHT22;14660;49.008;8.390;2022-10-23T06:21:20;13.50;99.90
27128;DHT22;14660;49.008;8.390;2022-10-23T06:23:48;13.60;99.90
27128;DHT22;14660;49.008;8.390;2022-10-23T06:26:16;13.40;99.90
27128;DHT22;14660;49.008;8.390;2022-10-23T06:28:44;13.50;99.90
27128;DHT22;14660;49.008;8.390;2022-10-23T06:31:13;13.60;99.90
27128;DHT22;14660;49.008;8.390;2022-10-23T06:33:40;13.70;99.90
27128;DHT22;14660;49.008;8.390;2022-10-23T06:36:08;13.60;99.90
27128;DHT22;14660;49.008;8.390;2022-10-23T06:38:38;13.60;99.90
27128;DHT22;14660;49.008;8.390;2022-10-23T06:41:06;13.50;99.90
27128;DHT22;14660;49.008;8.390;2022-10-23T06:43:34;13.60;99.90
27128;DHT22;14660;49.008;8.390;2022-10-23T06:46:02;13.70;99.90
27128;DHT22;14660;49.008;8.390;2022-10-23T06:48:30;13.80;99.90
27128;DHT22;14660;49.008;8.390;2022-10-23T06:50:57;13.80;99.90
27128;DHT22;14660;49.008;8.390;2022-10-23T06:53:25;13.80;99.90
27128;DHT22;14660;49.008;8.390;2022-10-23T06:55:57;13.90;99.90
27128;DHT22;14660;49.008;8.390;2022-10-23T06:58:25;13.90;99.90
27128;DHT22;14660;49.008;8.390;2022-10-23T07:00:52;13.80;99.90
27128;DHT22;14660;49.008;8.390;2022-10-23T07:03:18;13.80;99.90
27128;DHT22;14660;49.008;8.390;2022-10-23T07:05:46;13.80;99.90
27128;DHT22;14660;49.008;8.390;2022-10-23T07:08:15;13.90;99.90
27128;DHT22;14660;49.008;8.390;2022-10-23T07:10:42;13.80;99.90
27128;DHT22;14660;49.008;8.390;2022-10-23T07:13:10;13.90;99.90
27128;DHT22;14660;49.008;8.390;2022-10-23T07:15:39;13.90;99.90
27128;DHT22;14660;49.008;8.390;2022-10-23T07:18:07;14.00;99.90
27128;DHT22;14660;49.008;8.390;2022-10-23T07:20:40;14.10;99.90
27128;DHT22;14660;49.008;8.390;2022-10-23T07:23:08;14.20;99.90
27128;DHT22;14660;49.008;8.390;2022-10-23T07:25:38;14.30;99.90
27128;DHT22;14660;49.008;8.390;2022-10-23T07:28:05;14.20;99.90
27128;DHT22;14660;49.008;8.390;2022-10-23T07:30:32;14.40;99.90
27128;DHT22;14660;49.008;8.390;2022-10-23T07:32:58;14.40;99.90
27128;DHT22;14660;49.008;8.390;2022-10-23T07:35:24;14.40;99.90
27128;DHT22;14660;49.008;8.390;2022-10-23T07:37:51;14.50;99.90
27128;DHT22;14660;49.008;8.390;2022-10-23T07:40:19;14.40;99.90
27128;DHT22;14660;49.008;8.390;2022-10-23T07:42:45;14.50;99.90
27128;DHT22;14660;49.008;8.390;2022-10-23T07:45:12;14.60;99.90
27128;DHT22;14660;49.008;8.390;2022-10-23T07:47:38;14.80;99.90
27128;DHT22;14660;49.008;8.390;2022-10-23T07:50:05;14.80;99.90
27128;DHT22;14660;49.008;8.390;2022-10-23T07:52:34;14.90;99.90
27128;DHT22;14660;49.008;8.390;2022-10-23T07:55:01;15.00;99.90
27128;DHT22;14660;49.008;8.390;2022-10-23T07:57:28;15.10;99.90
27128;DHT22;14660;49.008;8.390;2022-10-23T07:59:57;15.10;99.90
27128;DHT22;14660;49.008;8.390;2022-10-23T08:02:34;15.20;99.90
27128;DHT22;14660;49.008;8.390;2022-10-23T08:05:02;15.20;99.90
27128;DHT22;14660;49.008;8.390;2022-10-23T08:07:29;15.20;99.90
27128;DHT22;14660;49.008;8.390;2022-10-23T08:09:57;15.10;99.90
27128;DHT22;14660;49.008;8.390;2022-10-23T08:12:24;15.20;99.90
27128;DHT22;14660;49.008;8.390;2022-10-23T08:14:50;15.30;99.90
27128;DHT22;14660;49.008;8.390;2022-10-23T08:17:19;15.40;99.90
27128;DHT22;14660;49.008;8.390;2022-10-23T08:19:55;15.40;99.90
27128;DHT22;14660;49.008;8.390;2022-10-23T08:22:23;15.40;99.90
27128;DHT22;14660;49.008;8.390;2022-10-23T08:24:50;15.30;99.90
27128;DHT22;14660;49.008;8.390;2022-10-23T08:27:16;15.40;99.90
27128;DHT22;14660;49.008;8.390;2022-10-23T08:29:44;15.50;99.90
27128;DHT22;14660;49.008;8.390;2022-10-23T08:32:11;15.60;99.90
27128;DHT22;14660;49.008;8.390;2022-10-23T08:34:38;15.60;99.90
27128;DHT22;14660;49.008;8.390;2022-10-23T08:37:07;15.70;99.90
27128;DHT22;14660;49.008;8.390;2022-10-23T08:39:32;15.80;99.90
27128;DHT22;14660;49.008;8.390;2022-10-23T08:42:00;15.80;99.90
27128;DHT22;14660;49.008;8.390;2022-10-23T08:47:47;16.00;99.90
27128;DHT22;14660;49.008;8.390;2022-10-23T08:50:40;16.20;99.90
27128;DHT22;14660;49.008;8.390;2022-10-23T08:53:26;16.20;99.90
27128;DHT22;14660;49.008;8.390;2022-10-23T08:56:01;16.30;99.90
27128;DHT22;14660;49.008;8.390;2022-10-23T08:58:52;16.40;99.90
27128;DHT22;14660;49.008;8.390;2022-10-23T09:01:42;16.40;99.90
27128;DHT22;14660;49.008;8.390;2022-10-23T09:04:13;16.50;99.90
27128;DHT22;14660;49.008;8.390;2022-10-23T09:12:29;16.50;99.90
27128;DHT22;14660;49.008;8.390;2022-10-23T09:15:34;16.50;99.90
27128;DHT22;14660;49.008;8.390;2022-10-23T09:18:11;16.60;99.90
27128;DHT22;14660;49.008;8.390;2022-10-23T09:20:39;16.60;99.90
27128;DHT22;14660;49.008;8.390;2022-10-23T09:23:26;16.50;99.90
27128;DHT22;14660;49.008;8.390;2022-10-23T09:25:53;16.60;99.90
27128;DHT22;14660;49.008;8.390;2022-10-23T09:28:54;16.60;99.90
27128;DHT22;14660;49.008;8.390;2022-10-23T09:31:21;16.70;99.90
27128;DHT22;14660;49.008;8.390;2022-10-23T09:34:04;16.70;99.90
27128;DHT22;14660;49.008;8.390;2022-10-23T09:36:34;16.80;99.90
27128;DHT22;14660;49.008;8.390;2022-10-23T09:39:01;16.80;99.90
27128;DHT22;14660;49.008;8.390;2022-10-23T09:41:39;16.70;99.90
27128;DHT22;14660;49.008;8.390;2022-10-23T09:46:58;16.90;99.90
27128;DHT22;14660;49.008;8.390;2022-10-23T09:49:29;17.00;99.90
27128;DHT22;14660;49.008;8.390;2022-10-23T09:55:20;17.30;99.90
27128;DHT22;14660;49.008;8.390;2022-10-23T09:57:51;17.50;99.90
27128;DHT22;14660;49.008;8.390;2022-10-23T10:00:44;17.70;99.90
27128;DHT22;14660;49.008;8.390;2022-10-23T10:03:22;17.80;99.90
27128;DHT22;14660;49.008;8.390;2022-10-23T10:06:00;18.00;99.90
27128;DHT22;14660;49.008;8.390;2022-10-23T10:08:50;18.10;99.90
27128;DHT22;14660;49.008;8.390;2022-10-23T10:24:26;18.40;99.90
27128;DHT22;14660;49.008;8.390;2022-10-23T10:30:17;18.30;99.90
27128;DHT22;14660;49.008;8.390;2022-10-23T10:35:58;18.20;99.90
27128;DHT22;14660;49.008;8.390;2022-10-23T10:38:49;18.40;99.90
27128;DHT22;14660;49.008;8.390;2022-10-23T10:41:40;18.40;99.90
27128;DHT22;14660;49.008;8.390;2022-10-23T10:47:32;18.50;99.90
27128;DHT22;14660;49.008;8.390;2022-10-23T10:50:16;18.50;99.90
27128;DHT22;14660;49.008;8.390;2022-10-23T10:55:50;18.70;99.90
27128;DHT22;14660;49.008;8.390;2022-10-23T10:59:37;18.80;99.90
27128;DHT22;14660;49.008;8.390;2022-10-23T11:04:51;19.00;99.90
27128;DHT22;14660;49.008;8.390;2022-10-23T11:07:36;19.10;99.90
27128;DHT22;14660;49.008;8.390;2022-10-23T11:10:16;19.10;99.90
27128;DHT22;14660;49.008;8.390;2022-10-23T11:12:42;19.20;99.90
27128;DHT22;14660;49.008;8.390;2022-10-23T11:15:38;19.30;99.90
27128;DHT22;14660;49.008;8.390;2022-10-23T11:18:18;19.20;99.90
27128;DHT22;14660;49.008;8.390;2022-10-23T11:40:33;19.20;99.90
27128;DHT22;14660;49.008;8.390;2022-10-23T11:43:00;19.20;99.90
27128;DHT22;14660;49.008;8.390;2022-10-23T11:45:45;19.30;99.90
27128;DHT22;14660;49.008;8.390;2022-10-23T11:48:40;19.20;99.90
27128;DHT22;14660;49.008;8.390;2022-10-23T11:54:31;19.10;99.90
27128;DHT22;14660;49.008;8.390;2022-10-23T11:59:56;19.00;99.90
27128;DHT22;14660;49.008;8.390;2022-10-23T12:05:36;18.80;99.90
27128;DHT22;14660;49.008;8.390;2022-10-23T12:08:24;18.80;99.90
27128;DHT22;14660;49.008;8.390;2022-10-23T12:10:52;18.70;99.90
27128;DHT22;14660;49.008;8.390;2022-10-23T12:16:33;18.80;99.90
27128;DHT22;14660;49.008;8.390;2022-10-23T12:19:16;18.90;99.90
27128;DHT22;14660;49.008;8.390;2022-10-23T12:21:49;18.90;99.90
27128;DHT22;14660;49.008;8.390;2022-10-23T12:27:32;19.20;99.90
27128;DHT22;14660;49.008;8.390;2022-10-23T12:39:50;19.40;99.90
27128;DHT22;14660;49.008;8.390;2022-10-23T12:42:23;19.40;99.90
27128;DHT22;14660;49.008;8.390;2022-10-23T12:45:21;19.40;99.90
27128;DHT22;14660;49.008;8.390;2022-10-23T12:47:59;19.40;99.90
27128;DHT22;14660;49.008;8.390;2022-10-23T12:50:30;19.40;99.90
27128;DHT22;14660;49.008;8.390;2022-10-23T12:53:04;19.40;99.90
27128;DHT22;14660;49.008;8.390;2022-10-23T12:55:57;19.40;99.90
27128;DHT22;14660;49.008;8.390;2022-10-23T12:58:29;19.40;99.90
27128;DHT22;14660;49.008;8.390;2022-10-23T13:00:59;19.40;99.90
27128;DHT22;14660;49.008;8.390;2022-10-23T13:03:27;19.50;99.90
27128;DHT22;14660;49.008;8.390;2022-10-23T13:09:02;19.60;99.90
27128;DHT22;14660;49.008;8.390;2022-10-23T13:12:01;19.60;99.90
27128;DHT22;14660;49.008;8.390;2022-10-23T13:20:59;19.70;99.90
27128;DHT22;14660;49.008;8.390;2022-10-23T13:23:45;19.70;99.90
27128;DHT22;14660;49.008;8.390;2022-10-23T13:26:31;19.70;99.90
27128;DHT22;14660;49.008;8.390;2022-10-23T13:29:01;19.80;99.90
27128;DHT22;14660;49.008;8.390;2022-10-23T13:31:32;19.80;99.90
27128;DHT22;14660;49.008;8.390;2022-10-23T13:34:31;19.90;99.90
27128;DHT22;14660;49.008;8.390;2022-10-23T13:36:58;19.90;99.90
27128;DHT22;14660;49.008;8.390;2022-10-23T13:39:35;19.90;99.90
27128;DHT22;14660;49.008;8.390;2022-10-23T13:42:22;19.80;99.90
27128;DHT22;14660;49.008;8.390;2022-10-23T13:44:49;19.80;99.90
27128;DHT22;14660;49.008;8.390;2022-10-23T13:47:16;19.90;99.90
27128;DHT22;14660;49.008;8.390;2022-10-23T13:49:43;19.90;99.90
27128;DHT22;14660;49.008;8.390;2022-10-23T13:52:13;20.00;99.90
27128;DHT22;14660;49.008;8.390;2022-10-23T13:54:38;20.10;99.90
27128;DHT22;14660;49.008;8.390;2022-10-23T13:57:11;20.00;99.90
27128;DHT22;14660;49.008;8.390;2022-10-23T13:59:39;20.00;99.90
27128;DHT22;14660;49.008;8.390;2022-10-23T14:02:19;20.00;99.90
27128;DHT22;14660;49.008;8.390;2022-10-23T14:04:50;20.00;99.90
27128;DHT22;14660;49.008;8.390;2022-10-23T14:07:17;19.80;99.90
27128;DHT22;14660;49.008;8.390;2022-10-23T14:09:45;19.80;99.90
27128;DHT22;14660;49.008;8.390;2022-10-23T14:12:13;19.80;99.90
27128;DHT22;14660;49.008;8.390;2022-10-23T14:14:40;19.80;99.90
27128;DHT22;14660;49.008;8.390;2022-10-23T14:17:08;19.80;99.90
27128;DHT22;14660;49.008;8.390;2022-10-23T14:19:34;19.80;99.90
27128;DHT22;14660;49.008;8.390;2022-10-23T14:22:00;19.80;99.90
27128;DHT22;14660;49.008;8.390;2022-10-23T14:24:28;19.80;99.90
27128;DHT22;14660;49.008;8.390;2022-10-23T14:26:56;19.70;99.90
27128;DHT22;14660;49.008;8.390;2022-10-23T14:29:34;19.80;99.90
27128;DHT22;14660;49.008;8.390;2022-10-23T14:32:01;19.80;99.90
27128;DHT22;14660;49.008;8.390;2022-10-23T14:34:29;19.80;99.90
27128;DHT22;14660;49.008;8.390;2022-10-23T14:36:56;19.80;99.90
27128;DHT22;14660;49.008;8.390;2022-10-23T14:39:22;19.70;99.90
27128;DHT22;14660;49.008;8.390;2022-10-23T14:41:49;19.80;99.90
27128;DHT22;14660;49.008;8.390;2022-10-23T14:44:17;19.80;99.90
27128;DHT22;14660;49.008;8.390;2022-10-23T14:46:44;19.80;99.90
27128;DHT22;14660;49.008;8.390;2022-10-23T14:49:10;19.80;99.90
27128;DHT22;14660;49.008;8.390;2022-10-23T14:51:37;19.90;99.90
27128;DHT22;14660;49.008;8.390;2022-10-23T14:54:06;19.90;99.90
27128;DHT22;14660;49.008;8.390;2022-10-23T14:56:35;19.90;99.90
27128;DHT22;14660;49.008;8.390;2022-10-23T14:59:03;19.90;99.90
27128;DHT22;14660;49.008;8.390;2022-10-23T15:01:32;19.90;99.90
27128;DHT22;14660;49.008;8.390;2022-10-23T15:04:00;19.80;99.90
27128;DHT22;14660;49.008;8.390;2022-10-23T15:06:26;19.80;99.90
27128;DHT22;14660;49.008;8.390;2022-10-23T15:08:53;19.80;99.90
27128;DHT22;14660;49.008;8.390;2022-10-23T15:11:23;19.70;99.90
27128;DHT22;14660;49.008;8.390;2022-10-23T15:13:49;19.60;99.90
27128;DHT22;14660;49.008;8.390;2022-10-23T15:16:16;19.60;99.90
27128;DHT22;14660;49.008;8.390;2022-10-23T15:18:45;19.50;99.90
27128;DHT22;14660;49.008;8.390;2022-10-23T15:21:12;19.50;99.90
27128;DHT22;14660;49.008;8.390;2022-10-23T15:23:44;19.60;99.90
27128;DHT22;14660;49.008;8.390;2022-10-23T15:26:19;19.70;99.90
27128;DHT22;14660;49.008;8.390;2022-10-23T15:28:59;19.70;99.90
27128;DHT22;14660;49.008;8.390;2022-10-23T15:33:58;19.60;99.90
27128;DHT22;14660;49.008;8.390;2022-10-23T15:36:25;19.70;99.90
27128;DHT22;14660;49.008;8.390;2022-10-23T15:38:53;19.70;99.90
27128;DHT22;14660;49.008;8.390;2022-10-23T15:41:27;19.80;99.90
27128;DHT22;14660;49.008;8.390;2022-10-23T15:43:54;19.60;99.90
27128;DHT22;14660;49.008;8.390;2022-10-23T15:46:22;19.50;99.90
27128;DHT22;14660;49.008;8.390;2022-10-23T15:48:49;19.40;99.90
27128;DHT22;14660;49.008;8.390;2022-10-23T15:51:25;19.40;99.90
27128;DHT22;14660;49.008;8.390;2022-10-23T15:53:52;19.20;99.90
27128;DHT22;14660;49.008;8.390;2022-10-23T15:56:25;19.30;99.90
27128;DHT22;14660;49.008;8.390;2022-10-23T15:58:51;19.30;99.90
27128;DHT22;14660;49.008;8.390;2022-10-23T16:01:22;19.20;99.90
27128;DHT22;14660;49.008;8.390;2022-10-23T16:03:50;19.20;99.90
27128;DHT22;14660;49.008;8.390;2022-10-23T16:06:19;19.10;99.90
27128;DHT22;14660;49.008;8.390;2022-10-23T16:08:48;19.10;99.90
27128;DHT22;14660;49.008;8.390;2022-10-23T16:11:33;19.00;99.90
27128;DHT22;14660;49.008;8.390;2022-10-23T16:14:01;19.00;99.90
27128;DHT22;14660;49.008;8.390;2022-10-23T16:16:31;19.00;99.90
27128;DHT22;14660;49.008;8.390;2022-10-23T16:19:04;18.90;99.90
27128;DHT22;14660;49.008;8.390;2022-10-23T16:21:50;18.80;99.90
27128;DHT22;14660;49.008;8.390;2022-10-23T16:24:17;18.80;99.90
27128;DHT22;14660;49.008;8.390;2022-10-23T16:26:44;18.80;99.90
27128;DHT22;14660;49.008;8.390;2022-10-23T16:29:18;18.70;99.90
27128;DHT22;14660;49.008;8.390;2022-10-23T16:31:46;18.80;99.90
27128;DHT22;14660;49.008;8.390;2022-10-23T16:34:13;18.80;99.90
27128;DHT22;14660;49.008;8.390;2022-10-23T16:36:39;18.80;99.90
27128;DHT22;14660;49.008;8.390;2022-10-23T16:39:19;18.80;99.90
27128;DHT22;14660;49.008;8.390;2022-10-23T16:41:54;18.80;99.90
27128;DHT22;14660;49.008;8.390;2022-10-23T16:44:22;18.70;99.90
27128;DHT22;14660;49.008;8.390;2022-10-23T16:46:50;18.70;99.90
27128;DHT22;14660;49.008;8.390;2022-10-23T16:49:17;18.60;99.90
27128;DHT22;14660;49.008;8.390;2022-10-23T16:51:44;18.70;99.90
27128;DHT22;14660;49.008;8.390;2022-10-23T16:54:12;18.70;99.90
27128;DHT22;14660;49.008;8.390;2022-10-23T16:56:40;18.70;99.90
27128;DHT22;14660;49.008;8.390;2022-10-23T16:59:08;18.60;99.90
27128;DHT22;14660;49.008;8.390;2022-10-23T17:01:35;18.60;99.90
27128;DHT22;14660;49.008;8.390;2022-10-23T17:04:02;18.60;99.90
27128;DHT22;14660;49.008;8.390;2022-10-23T17:06:30;18.60;99.90
27128;DHT22;14660;49.008;8.390;2022-10-23T17:08:58;18.60;99.90
27128;DHT22;14660;49.008;8.390;2022-10-23T17:11:27;18.60;99.90
27128;DHT22;14660;49.008;8.390;2022-10-23T17:13:58;18.50;99.90
27128;DHT22;14660;49.008;8.390;2022-10-23T17:16:48;18.50;99.90
27128;DHT22;14660;49.008;8.390;2022-10-23T17:19:17;18.50;99.90
27128;DHT22;14660;49.008;8.390;2022-10-23T17:21:45;18.50;99.90
27128;DHT22;14660;49.008;8.390;2022-10-23T17:24:12;18.40;99.90
27128;DHT22;14660;49.008;8.390;2022-10-23T17:26:39;18.40;99.90
27128;DHT22;14660;49.008;8.390;2022-10-23T17:29:07;18.40;99.90
27128;DHT22;14660;49.008;8.390;2022-10-23T17:31:40;18.40;99.90
27128;DHT22;14660;49.008;8.390;2022-10-23T17:34:09;18.30;99.90
27128;DHT22;14660;49.008;8.390;2022-10-23T17:36:39;18.40;99.90
27128;DHT22;14660;49.008;8.390;2022-10-23T17:39:17;18.30;99.90
27128;DHT22;14660;49.008;8.390;2022-10-23T17:41:45;18.30;99.90
27128;DHT22;14660;49.008;8.390;2022-10-23T17:44:12;18.30;99.90
27128;DHT22;14660;49.008;8.390;2022-10-23T17:46:40;18.20;99.90
27128;DHT22;14660;49.008;8.390;2022-10-23T17:49:07;18.10;99.90
27128;DHT22;14660;49.008;8.390;2022-10-23T17:51:38;18.10;99.90
27128;DHT22;14660;49.008;8.390;2022-10-23T17:54:07;18.00;99.90
27128;DHT22;14660;49.008;8.390;2022-10-23T17:56:35;18.00;99.90
27128;DHT22;14660;49.008;8.390;2022-10-23T17:59:07;17.90;99.90
27128;DHT22;14660;49.008;8.390;2022-10-23T18:01:38;17.90;99.90
27128;DHT22;14660;49.008;8.390;2022-10-23T18:04:06;17.90;99.90
27128;DHT22;14660;49.008;8.390;2022-10-23T18:06:39;17.90;99.90
27128;DHT22;14660;49.008;8.390;2022-10-23T18:09:08;17.90;99.90
27128;DHT22;14660;49.008;8.390;2022-10-23T18:11:38;17.80;99.90
27128;DHT22;14660;49.008;8.390;2022-10-23T18:14:07;17.80;99.90
27128;DHT22;14660;49.008;8.390;2022-10-23T18:16:36;17.80;99.90